createdAt,value
2023-04-02T00:00:13.850Z,14.30
2023-04-02T00:02:55.392Z,13.68
2023-04-02T00:05:47.187Z,13.25
2023-04-02T00:08:28.278Z,13.95
2023-04-02T00:10:58.380Z,14.00
2023-04-02T00:13:32.778Z,14.18
2023-04-02T00:16:02.051Z,16.48
2023-04-02T00:18:31.900Z,14.13
2023-04-02T00:21:09.195Z,14.40
2023-04-02T00:23:40.177Z,13.55
2023-04-02T00:26:21.789Z,14.48
2023-04-02T00:28:49.918Z,12.27
2023-04-02T00:31:20.239Z,14.20
2023-04-02T00:33:49.297Z,13.00
2023-04-02T00:36:19.135Z,14.85
2023-04-02T00:38:50.573Z,14.65
2023-04-02T00:41:24.281Z,15.25
2023-04-02T00:43:58.514Z,13.13
2023-04-02T00:46:30.839Z,14.52
2023-04-02T00:49:03.474Z,15.23
2023-04-02T00:51:36.391Z,14.05
2023-04-02T00:54:10.669Z,13.20
2023-04-02T00:56:42.485Z,13.15
2023-04-02T00:59:20.291Z,14.60
2023-04-02T01:01:53.458Z,13.98
2023-04-02T01:04:30.886Z,14.20
2023-04-02T01:06:59.567Z,13.18
2023-04-02T01:09:48.832Z,14.23
2023-04-02T01:12:38.012Z,13.68
2023-04-02T01:15:13.396Z,13.85
2023-04-02T01:17:58.693Z,13.48
2023-04-02T01:20:50.918Z,13.63
2023-04-02T01:23:26.758Z,13.55
2023-04-02T01:26:03.500Z,14.13
2023-04-02T01:28:36.618Z,13.88
2023-04-02T01:31:06.078Z,13.32
2023-04-02T01:33:35.594Z,13.82
2023-04-02T01:36:09.730Z,13.50
2023-04-02T01:38:41.761Z,13.45
2023-04-02T01:41:18.945Z,11.95
2023-04-02T01:43:51.832Z,13.30
2023-04-02T01:46:29.197Z,13.63
2023-04-02T01:49:00.168Z,14.05
2023-04-02T01:51:30.349Z,16.25
2023-04-02T01:54:00.760Z,14.65
2023-04-02T01:56:30.153Z,13.68
2023-04-02T01:58:59.165Z,12.85
2023-04-02T02:01:35.323Z,12.52
2023-04-02T02:04:04.189Z,12.10
2023-04-02T02:06:31.906Z,13.63
2023-04-02T02:09:04.664Z,13.38
2023-04-02T02:11:33.936Z,13.25
2023-04-02T02:14:06.266Z,13.98
2023-04-02T02:16:41.417Z,13.57
2023-04-02T02:19:20.329Z,14.10
2023-04-02T02:21:51.796Z,13.15
2023-04-02T02:24:23.780Z,12.00
2023-04-02T02:27:08.771Z,13.00
2023-04-02T02:29:40.567Z,12.88
2023-04-02T02:32:11.828Z,14.00
2023-04-02T02:34:44.126Z,15.48
2023-04-02T02:37:16.396Z,14.18
2023-04-02T02:39:46.621Z,13.13
2023-04-02T02:42:18.454Z,13.05
2023-04-02T02:47:20.030Z,11.75
2023-04-02T02:49:51.378Z,13.57
2023-04-02T02:52:20.876Z,13.23
2023-04-02T02:54:52.089Z,13.82
2023-04-02T02:57:23.105Z,12.63
2023-04-02T02:59:53.006Z,13.68
2023-04-02T03:02:22.970Z,12.82
2023-04-02T03:04:53.769Z,12.73
2023-04-02T03:07:24.952Z,12.77
2023-04-02T03:09:59.589Z,13.43
2023-04-02T03:12:42.105Z,13.15
2023-04-02T03:15:19.186Z,14.00
2023-04-02T03:17:53.613Z,13.93
2023-04-02T03:20:27.805Z,14.40
2023-04-02T03:23:00.100Z,14.32
2023-04-02T03:25:36.085Z,14.57
2023-04-02T03:28:07.806Z,14.73
2023-04-02T03:30:42.394Z,15.35
2023-04-02T03:33:17.493Z,16.05
2023-04-02T03:35:52.813Z,15.15
2023-04-02T03:38:25.167Z,14.43
2023-04-02T03:41:01.533Z,16.70
2023-04-02T03:43:34.646Z,15.13
2023-04-02T03:46:16.229Z,13.15
2023-04-02T03:51:20.507Z,13.20
2023-04-02T03:53:49.399Z,14.00
2023-04-02T03:56:26.088Z,13.02
2023-04-02T03:59:03.205Z,13.20
2023-04-02T04:01:37.620Z,12.98
2023-04-02T04:04:12.531Z,14.40
2023-04-02T04:06:43.362Z,13.40
2023-04-02T04:11:48.868Z,14.15
2023-04-02T04:14:21.412Z,12.30
2023-04-02T04:16:54.016Z,13.73
2023-04-02T04:19:28.563Z,14.48
2023-04-02T04:22:11.074Z,16.00
2023-04-02T04:24:39.169Z,14.30
2023-04-02T04:27:14.029Z,13.73
2023-04-02T04:29:49.380Z,11.43
2023-04-02T04:32:24.420Z,12.43
2023-04-02T04:34:58.482Z,13.55
2023-04-02T04:37:31.979Z,14.90
2023-04-02T04:40:03.621Z,14.80
2023-04-02T04:42:36.331Z,14.00
2023-04-02T04:45:16.884Z,15.13
2023-04-02T04:47:51.844Z,14.02
2023-04-02T04:50:30.289Z,14.50
2023-04-02T04:53:05.669Z,14.50
2023-04-02T04:55:38.658Z,13.35
2023-04-02T04:58:18.874Z,12.35
2023-04-02T05:00:56.396Z,13.38
2023-04-02T05:03:39.666Z,12.38
2023-04-02T05:06:15.843Z,12.65
2023-04-02T05:08:47.636Z,12.30
2023-04-02T05:11:23.669Z,10.18
2023-04-02T05:13:56.934Z,11.02
2023-04-02T05:16:30.323Z,11.93
2023-04-02T05:19:07.910Z,13.18
2023-04-02T05:21:42.434Z,11.80
2023-04-02T05:24:36.513Z,12.60
2023-04-02T05:27:15.657Z,12.90
2023-04-02T05:29:50.474Z,12.88
2023-04-02T05:32:23.115Z,12.73
2023-04-02T05:34:54.777Z,11.40
2023-04-02T05:37:30.441Z,12.82
2023-04-02T05:40:00.663Z,10.73
2023-04-02T05:42:31.785Z,12.60
2023-04-02T05:45:09.605Z,12.43
2023-04-02T05:47:43.740Z,14.73
2023-04-02T05:50:24.555Z,13.05
2023-04-02T05:52:58.900Z,14.57
2023-04-02T05:55:37.192Z,12.93
2023-04-02T05:58:34.001Z,11.57
2023-04-02T06:01:05.814Z,11.48
2023-04-02T06:03:44.247Z,11.70
2023-04-02T06:06:18.871Z,11.85
2023-04-02T06:08:56.368Z,12.68
2023-04-02T06:11:28.021Z,10.88
2023-04-02T06:13:55.907Z,11.50
2023-04-02T06:16:28.175Z,12.00
2023-04-02T06:19:01.321Z,11.15
2023-04-02T06:21:29.545Z,11.45
2023-04-02T06:24:03.499Z,10.73
2023-04-02T06:26:35.149Z,11.27
2023-04-02T06:29:08.703Z,12.23
2023-04-02T06:31:44.971Z,12.23
2023-04-02T06:34:17.386Z,14.95
2023-04-02T06:36:47.766Z,11.88
2023-04-02T06:39:19.899Z,12.38
2023-04-02T06:41:53.091Z,12.57
2023-04-02T06:44:24.444Z,13.52
2023-04-02T06:46:55.607Z,13.57
2023-04-02T06:49:29.575Z,12.85
2023-04-02T06:52:00.437Z,12.27
2023-04-02T06:54:30.004Z,12.48
2023-04-02T06:56:57.700Z,12.63
2023-04-02T06:59:26.262Z,13.88
2023-04-02T07:01:58.932Z,12.45
2023-04-02T07:04:27.362Z,15.05
2023-04-02T07:06:55.587Z,12.88
2023-04-02T07:09:23.201Z,12.25
2023-04-02T07:11:52.358Z,12.80
2023-04-02T07:14:20.317Z,14.00
2023-04-02T07:16:48.008Z,14.02
2023-04-02T07:19:19.294Z,13.60
2023-04-02T07:21:49.215Z,14.23
2023-04-02T07:24:16.849Z,15.80
2023-04-02T07:26:44.626Z,14.65
2023-04-02T07:29:16.726Z,15.10
2023-04-02T07:31:45.018Z,14.77
2023-04-02T07:34:12.691Z,15.20
2023-04-02T07:36:40.462Z,13.27
2023-04-02T07:39:08.381Z,15.63
2023-04-02T07:41:51.328Z,15.25
2023-04-02T07:44:20.523Z,14.07
2023-04-02T07:46:48.334Z,15.23
2023-04-02T07:49:18.448Z,15.05
2023-04-02T07:51:46.173Z,15.88
2023-04-02T07:54:13.913Z,14.32
2023-04-02T07:56:41.492Z,16.27
2023-04-02T07:59:09.677Z,15.48
2023-04-02T08:01:39.427Z,16.48
2023-04-02T08:04:17.797Z,16.77
2023-04-02T08:06:47.153Z,17.42
2023-04-02T08:09:15.788Z,16.10
2023-04-02T08:11:44.132Z,15.98
2023-04-02T08:14:12.374Z,15.77
2023-04-02T08:16:52.108Z,18.67
2023-04-02T08:19:24.125Z,17.73
2023-04-02T08:21:51.918Z,18.77
2023-04-02T08:24:19.720Z,16.63
2023-04-02T08:26:48.986Z,17.85
2023-04-02T08:29:16.707Z,18.30
2023-04-02T08:31:45.272Z,17.50
2023-04-02T08:34:14.491Z,16.08
2023-04-02T08:36:44.554Z,16.65
2023-04-02T08:39:12.517Z,16.73
2023-04-02T08:41:47.306Z,16.25
2023-04-02T08:44:38.701Z,15.07
2023-04-02T08:47:08.156Z,17.38
2023-04-02T08:49:43.166Z,14.52
2023-04-02T08:52:21.604Z,16.98
2023-04-02T08:54:49.672Z,16.88
2023-04-02T08:57:27.512Z,15.13
2023-04-02T09:00:01.742Z,13.90
2023-04-02T09:02:37.986Z,14.07
2023-04-02T09:05:17.179Z,14.80
2023-04-02T09:07:47.382Z,14.63
2023-04-02T09:10:16.734Z,15.10
2023-04-02T09:12:52.690Z,13.60
2023-04-02T09:15:28.738Z,14.30
2023-04-02T09:18:00.438Z,12.52
2023-04-02T09:20:33.516Z,12.98
2023-04-02T09:23:01.732Z,13.13
2023-04-02T09:25:31.092Z,13.45
2023-04-02T09:28:04.925Z,13.65
2023-04-02T09:30:49.465Z,15.48
2023-04-02T09:33:17.177Z,14.90
2023-04-02T09:35:56.925Z,15.48
2023-04-02T09:38:26.674Z,16.10
2023-04-02T09:40:59.753Z,18.75
2023-04-02T09:43:29.890Z,18.02
2023-04-02T09:46:02.962Z,18.88
2023-04-02T09:48:34.226Z,20.08
2023-04-02T09:51:23.080Z,20.83
2023-04-02T09:54:06.352Z,17.23
2023-04-02T09:56:36.803Z,21.65
2023-04-02T09:59:06.603Z,20.10
2023-04-02T10:01:36.855Z,22.33
2023-04-02T10:04:06.748Z,21.23
2023-04-02T10:06:35.785Z,22.05
2023-04-02T10:09:25.896Z,21.73
2023-04-02T10:11:54.702Z,23.20
2023-04-02T10:14:27.878Z,21.35
2023-04-02T10:16:58.922Z,25.65
2023-04-02T10:19:31.329Z,21.98
2023-04-02T10:22:06.653Z,21.85
2023-04-02T10:24:34.757Z,21.30
2023-04-02T10:27:11.445Z,20.20
2023-04-02T10:30:09.664Z,19.88
2023-04-02T10:32:44.540Z,17.92
2023-04-02T10:35:21.525Z,17.58
2023-04-02T10:38:09.481Z,20.00
2023-04-02T10:40:41.986Z,20.02
2023-04-02T10:43:48.612Z,17.23
2023-04-02T10:46:25.097Z,16.63
2023-04-02T10:49:03.373Z,16.35
2023-04-02T10:51:40.521Z,17.88
2023-04-02T10:54:25.638Z,16.23
2023-04-02T10:56:56.644Z,16.23
2023-04-02T10:59:28.820Z,15.27
2023-04-02T11:01:59.436Z,14.52
2023-04-02T11:04:31.176Z,15.13
2023-04-02T11:07:13.840Z,14.40
2023-04-02T11:09:50.192Z,13.60
2023-04-02T11:12:23.167Z,13.88
2023-04-02T11:14:55.750Z,16.13
2023-04-02T11:17:24.823Z,16.17
2023-04-02T11:19:52.490Z,14.32
2023-04-02T11:22:22.563Z,14.68
2023-04-02T11:24:53.331Z,16.38
2023-04-02T11:27:25.339Z,14.48
2023-04-02T11:30:05.345Z,15.48
2023-04-02T11:32:38.457Z,14.82
2023-04-02T11:35:36.495Z,15.10
2023-04-02T11:38:42.461Z,15.55
2023-04-02T11:41:11.897Z,14.60
2023-04-02T11:43:51.157Z,15.93
2023-04-02T11:46:43.818Z,16.38
2023-04-02T11:49:35.292Z,15.38
2023-04-02T11:52:11.967Z,14.73
2023-04-02T11:54:40.985Z,13.98
2023-04-02T11:57:23.133Z,16.58
2023-04-02T12:00:18.821Z,13.68
2023-04-02T12:03:01.941Z,15.20
2023-04-02T12:05:34.721Z,13.40
2023-04-02T12:08:19.760Z,14.95
2023-04-02T12:10:56.659Z,13.70
2023-04-02T12:13:53.805Z,13.32
2023-04-02T12:16:22.790Z,13.05
2023-04-02T12:18:52.561Z,14.57
2023-04-02T12:21:22.608Z,11.93
2023-04-02T12:23:53.636Z,13.43
2023-04-02T12:26:33.968Z,12.65
2023-04-02T12:29:25.257Z,13.18
2023-04-02T12:34:23.355Z,12.20
2023-04-02T12:36:58.799Z,13.32
2023-04-02T12:39:28.301Z,12.38
2023-04-02T12:41:56.672Z,12.57
2023-04-02T12:44:27.848Z,11.07
2023-04-02T12:46:56.780Z,13.68
2023-04-02T12:49:33.360Z,13.82
2023-04-02T12:52:03.706Z,15.15
2023-04-02T12:54:36.865Z,16.13
2023-04-02T12:57:34.230Z,18.02
2023-04-02T13:00:32.181Z,17.50
2023-04-02T13:03:08.426Z,18.20
2023-04-02T13:05:40.250Z,17.95
2023-04-02T13:08:17.837Z,18.83
2023-04-02T13:10:52.010Z,18.77
2023-04-02T13:13:26.684Z,27.67
2023-04-02T13:16:04.434Z,40.97
2023-04-02T13:18:35.227Z,26.63
2023-04-02T13:21:04.724Z,89.90
2023-04-02T13:23:35.007Z,30.30
2023-04-02T13:26:12.087Z,44.95
2023-04-02T13:28:39.816Z,33.75
2023-04-02T13:31:14.949Z,40.20
2023-04-02T13:33:45.310Z,42.50
2023-04-02T13:36:15.873Z,34.58
2023-04-02T13:38:43.963Z,34.47
2023-04-02T13:41:20.380Z,45.45
2023-04-02T13:43:49.400Z,28.85
2023-04-02T13:46:21.260Z,26.15
2023-04-02T13:48:50.543Z,25.40
2023-04-02T13:51:19.448Z,29.70
2023-04-02T13:53:49.918Z,30.50
2023-04-02T13:56:17.713Z,27.73
2023-04-02T13:58:45.727Z,28.23
2023-04-02T14:01:15.597Z,28.73
2023-04-02T14:03:46.837Z,24.27
2023-04-02T14:06:22.086Z,22.52
2023-04-02T14:08:59.167Z,29.08
2023-04-02T14:11:36.151Z,31.45
2023-04-02T14:14:34.559Z,26.38
2023-04-02T14:17:13.555Z,35.97
2023-04-02T14:20:05.492Z,105.47
2023-04-02T14:22:46.628Z,41.90
2023-04-02T14:25:22.144Z,28.45
2023-04-02T14:27:58.575Z,41.42
2023-04-02T14:30:38.630Z,26.77
2023-04-02T14:33:14.777Z,30.73
2023-04-02T14:35:47.162Z,22.55
2023-04-02T14:38:24.994Z,28.17
2023-04-02T14:40:59.861Z,38.53
2023-04-02T14:43:32.621Z,60.08
2023-04-02T14:46:02.316Z,57.50
2023-04-02T14:48:48.558Z,42.83
2023-04-02T14:51:25.353Z,42.45
2023-04-02T14:54:01.011Z,37.13
2023-04-02T14:56:33.608Z,32.65
2023-04-02T15:01:40.891Z,36.10
2023-04-02T15:04:14.802Z,62.35
2023-04-02T15:06:49.371Z,40.33
2023-04-02T15:09:23.932Z,65.45
2023-04-02T15:11:55.444Z,105.18
2023-04-02T15:14:27.463Z,62.78
2023-04-02T15:16:57.680Z,47.85
2023-04-02T15:19:25.737Z,27.65
2023-04-02T15:22:14.412Z,28.45
2023-04-02T15:24:52.667Z,24.45
2023-04-02T15:27:35.711Z,118.28
2023-04-02T15:30:07.314Z,67.40
2023-04-02T15:32:40.212Z,46.40
2023-04-02T15:35:22.083Z,34.50
2023-04-02T15:37:59.616Z,53.30
2023-04-02T15:40:51.306Z,27.48
2023-04-02T15:43:25.271Z,41.03
2023-04-02T15:46:05.662Z,26.25
2023-04-02T15:51:36.428Z,35.78
2023-04-02T15:54:19.729Z,32.72
2023-04-02T15:56:56.817Z,30.98
2023-04-02T15:59:44.307Z,51.05
2023-04-02T16:02:40.555Z,34.20
2023-04-02T16:05:17.769Z,55.15
2023-04-02T16:08:07.139Z,84.80
2023-04-02T16:10:42.648Z,52.10
2023-04-02T16:13:19.217Z,43.67
2023-04-02T16:15:51.887Z,39.80
2023-04-02T16:18:30.366Z,34.28
2023-04-02T16:21:01.525Z,31.17
2023-04-02T16:23:34.298Z,32.97
2023-04-02T16:26:17.886Z,53.63
2023-04-02T16:28:56.868Z,60.92
2023-04-02T16:31:31.593Z,32.55
2023-04-02T16:34:06.662Z,30.45
2023-04-02T16:36:42.536Z,38.17
2023-04-02T16:39:22.590Z,36.60
2023-04-02T16:42:04.452Z,35.97
2023-04-02T16:44:43.591Z,29.60
2023-04-02T16:49:57.483Z,24.00
2023-04-02T16:52:35.481Z,20.63
2023-04-02T16:55:25.768Z,32.13
2023-04-02T16:58:07.078Z,20.20
2023-04-02T17:00:41.560Z,15.75
2023-04-02T17:03:29.460Z,21.67
2023-04-02T17:06:04.777Z,21.55
2023-04-02T17:08:42.003Z,24.92
2023-04-02T17:11:22.969Z,35.75
2023-04-02T17:14:02.223Z,25.92
2023-04-02T17:16:35.350Z,33.05
2023-04-02T17:19:09.960Z,29.17
2023-04-02T17:21:41.645Z,37.03
2023-04-02T17:24:20.055Z,31.70
2023-04-02T17:26:52.758Z,39.92
2023-04-02T17:29:26.860Z,37.25
2023-04-02T17:32:01.384Z,30.02
2023-04-02T17:34:29.813Z,27.98
2023-04-02T17:37:08.874Z,27.88
2023-04-02T17:39:44.412Z,37.83
2023-04-02T17:42:18.467Z,48.45
2023-04-02T17:45:05.278Z,57.10
2023-04-02T17:47:42.452Z,50.72
2023-04-02T17:50:34.045Z,40.20
2023-04-02T17:53:13.108Z,51.55
2023-04-02T17:55:52.276Z,35.88
2023-04-02T17:58:39.022Z,34.97
2023-04-02T18:01:15.673Z,33.28
2023-04-02T18:04:04.285Z,29.00
2023-04-02T18:06:37.007Z,23.13
2023-04-02T18:09:23.938Z,21.60
2023-04-02T18:12:03.452Z,18.52
2023-04-02T18:14:47.757Z,31.70
2023-04-02T18:17:27.365Z,31.27
2023-04-02T18:20:02.856Z,25.10
2023-04-02T18:22:40.574Z,28.30
2023-04-02T18:25:37.056Z,30.05
2023-04-02T18:28:16.417Z,27.38
2023-04-02T18:30:50.056Z,33.00
2023-04-02T18:33:33.652Z,33.20
2023-04-02T18:36:10.437Z,32.90
2023-04-02T18:38:44.663Z,24.70
2023-04-02T18:41:28.530Z,29.90
2023-04-02T18:44:11.917Z,24.02
2023-04-02T18:46:45.059Z,23.70
2023-04-02T18:49:26.318Z,20.50
2023-04-02T18:51:59.626Z,28.63
2023-04-02T18:54:32.350Z,25.00
2023-04-02T18:57:02.861Z,35.05
2023-04-02T18:59:41.256Z,45.35
2023-04-02T19:02:30.243Z,33.67
2023-04-02T19:05:03.649Z,29.73
2023-04-02T19:07:37.864Z,62.92
2023-04-02T19:10:21.616Z,50.53
2023-04-02T19:12:50.462Z,40.55
2023-04-02T19:15:18.796Z,36.83
2023-04-02T19:17:54.062Z,30.35
2023-04-02T19:20:32.779Z,35.13
2023-04-02T19:23:12.281Z,39.70
2023-04-02T19:25:50.938Z,29.73
2023-04-02T19:28:29.212Z,43.53
2023-04-02T19:31:23.038Z,34.85
2023-04-02T19:33:56.905Z,19.23
2023-04-02T19:36:39.818Z,39.42
2023-04-02T19:39:49.853Z,33.72
2023-04-02T19:42:30.191Z,53.25
2023-04-02T19:44:58.198Z,47.30
2023-04-02T19:47:26.128Z,40.00
2023-04-02T19:49:54.647Z,29.17
2023-04-02T19:52:23.849Z,28.90
2023-04-02T19:54:53.094Z,24.75
2023-04-02T19:57:20.724Z,29.35
2023-04-02T19:59:50.929Z,21.17
2023-04-02T20:02:18.649Z,20.55
2023-04-02T20:04:46.202Z,19.60
2023-04-02T20:07:13.978Z,21.55
2023-04-02T20:09:43.423Z,24.98
2023-04-02T20:12:11.237Z,25.38
2023-04-02T20:14:41.722Z,26.30
2023-04-02T20:17:09.532Z,27.85
2023-04-02T20:19:37.159Z,28.00
2023-04-02T20:24:36.394Z,25.80
2023-04-02T20:27:08.381Z,22.50
2023-04-02T20:29:37.016Z,15.40
2023-04-02T20:32:04.849Z,19.75
2023-04-02T20:34:32.616Z,20.77
2023-04-02T20:37:00.854Z,23.73
2023-04-02T20:39:28.603Z,31.88
2023-04-02T20:41:56.172Z,18.60
2023-04-02T20:44:26.858Z,15.27
2023-04-02T20:46:55.076Z,23.90
2023-04-02T20:49:22.844Z,33.60
2023-04-02T20:51:53.826Z,18.92
2023-04-02T20:54:21.515Z,20.70
2023-04-02T20:56:50.419Z,16.48
2023-04-02T20:59:18.486Z,18.02
2023-04-02T21:01:47.569Z,18.02
2023-04-02T21:04:15.235Z,17.45
2023-04-02T21:06:44.120Z,17.67
2023-04-02T21:09:15.493Z,13.65
2023-04-02T21:11:45.908Z,15.23
2023-04-02T21:14:13.700Z,13.15
2023-04-02T21:16:43.508Z,11.82
2023-04-02T21:19:13.119Z,11.45
2023-04-02T21:21:41.250Z,12.30
2023-04-02T21:24:09.925Z,10.80
2023-04-02T21:26:40.556Z,11.77
2023-04-02T21:29:08.464Z,9.70
2023-04-02T21:31:38.079Z,8.80
2023-04-02T21:34:06.909Z,9.48
2023-04-02T21:36:37.826Z,10.60
2023-04-02T21:39:07.830Z,6.82
2023-04-02T21:41:39.229Z,5.38
2023-04-02T21:44:08.748Z,4.05
2023-04-02T21:46:38.634Z,3.65
2023-04-02T21:49:06.846Z,6.50
2023-04-02T21:51:37.008Z,4.30
2023-04-02T21:54:05.497Z,3.43
2023-04-02T21:56:36.092Z,2.83
2023-04-02T21:59:04.993Z,2.78
2023-04-02T22:01:35.295Z,3.10
2023-04-02T22:04:06.459Z,2.72
2023-04-02T22:06:39.721Z,2.40
2023-04-02T22:09:10.210Z,2.70
2023-04-02T22:11:42.169Z,2.53
2023-04-02T22:14:10.809Z,2.55
2023-04-02T22:16:39.509Z,2.88
2023-04-02T22:19:09.392Z,2.88
2023-04-02T22:21:39.172Z,2.80
2023-04-02T22:24:09.176Z,2.65
2023-04-02T22:26:37.599Z,2.88
2023-04-02T22:29:05.496Z,2.70
2023-04-02T22:31:34.088Z,2.75
2023-04-02T22:34:02.939Z,2.85
2023-04-02T22:36:31.305Z,2.67
2023-04-02T22:39:04.146Z,2.83
2023-04-02T22:41:31.906Z,2.75
2023-04-02T22:44:00.932Z,3.40
2023-04-02T22:46:28.968Z,2.88
2023-04-02T22:48:56.955Z,2.60
2023-04-02T22:51:25.477Z,2.83
2023-04-02T22:53:54.680Z,2.95
2023-04-02T22:56:25.529Z,2.90
2023-04-02T22:58:53.494Z,3.00
2023-04-02T23:01:23.189Z,3.00
2023-04-02T23:03:53.322Z,2.70
2023-04-02T23:06:22.448Z,2.92
2023-04-02T23:08:50.452Z,2.42
2023-04-02T23:11:21.234Z,4.57
2023-04-02T23:13:52.207Z,4.03
2023-04-02T23:16:20.751Z,3.65
2023-04-02T23:18:49.170Z,3.83
2023-04-02T23:21:18.808Z,3.50
2023-04-02T23:23:46.968Z,3.40
2023-04-02T23:26:16.334Z,4.38
2023-04-02T23:28:44.600Z,3.35
2023-04-02T23:31:16.235Z,3.17
2023-04-02T23:36:14.903Z,3.33
2023-04-02T23:38:45.456Z,3.45
2023-04-02T23:41:14.405Z,3.45
2023-04-02T23:43:42.864Z,3.10
2023-04-02T23:46:10.999Z,4.07
2023-04-02T23:48:40.622Z,4.25
2023-04-02T23:51:08.343Z,3.40
2023-04-02T23:53:36.084Z,3.45
2023-04-02T23:56:05.898Z,3.80
2023-04-02T23:58:33.455Z,3.47
